Terminal Aerodrome Forecast
Issued by NWS Burlington, VT

Home | Current Version | Previous Version | Text Only | Print | Product List | Glossary On
Versions: 1 2 3 4 5 6 7 8 9 10 11 12 13 14 15 16 17 18
000
FTUS41 KBTV 220100 AAA
TAFBTV
TAF AMD
KBTV 220100Z 2201/2224 18005KT 6SM -RA BKN040 OVC070
      TEMPO 2201/2203 4SM -RA BR OVC035
     FM220300 20006KT P6SM BKN035 OVC070
     FM220600 23009KT P6SM SCT035 OVC080
     FM221100 28014G20KT P6SM OVC025
     FM221500 30015G25KT P6SM OVC025=

USA.gov is the U.S. government's official web portal to all federal, state and local government web resources and services.